createdAt,value
2023-04-09T00:00:12.316Z,100607.69
2023-04-09T00:02:41.117Z,100607.97
2023-04-09T00:05:08.395Z,100604.75
2023-04-09T00:07:36.407Z,100610.22
2023-04-09T00:10:03.370Z,100610.00
2023-04-09T00:12:30.447Z,100611.44
2023-04-09T00:14:57.747Z,100614.44
2023-04-09T00:17:24.738Z,100601.84
2023-04-09T00:19:51.718Z,100617.16
2023-04-09T00:22:18.537Z,100608.09
2023-04-09T00:24:45.402Z,100614.50
2023-04-09T00:27:12.175Z,100614.50
2023-04-09T00:29:39.029Z,100606.41
2023-04-09T00:32:07.043Z,100610.78
2023-04-09T00:34:34.483Z,100608.34
2023-04-09T00:37:01.460Z,100611.38
2023-04-09T00:39:28.477Z,100611.66
2023-04-09T00:41:59.760Z,100614.38
2023-04-09T00:44:26.504Z,100616.00
2023-04-09T00:46:54.281Z,100607.47
2023-04-09T00:49:21.895Z,100612.47
2023-04-09T00:51:49.348Z,100615.19
2023-04-09T00:54:16.372Z,100613.44
2023-04-09T00:56:43.989Z,100616.66
2023-04-09T00:59:10.814Z,100612.94
2023-04-09T01:01:37.801Z,100610.91
2023-04-09T01:04:05.058Z,100614.16
2023-04-09T01:06:45.487Z,100609.97
2023-04-09T01:09:33.762Z,100606.66
2023-04-09T01:12:23.822Z,100608.84
2023-04-09T01:15:02.179Z,100615.19
2023-04-09T01:18:02.072Z,100608.50
2023-04-09T01:20:48.132Z,100610.13
2023-04-09T01:23:14.955Z,100610.59
2023-04-09T01:26:05.783Z,100611.72
2023-04-09T01:28:47.933Z,100606.88
2023-04-09T01:31:28.502Z,100608.78
2023-04-09T01:33:57.049Z,100611.22
2023-04-09T01:36:26.504Z,100616.22
2023-04-09T01:38:54.849Z,100614.59
2023-04-09T01:41:23.227Z,100611.06
2023-04-09T01:43:52.274Z,100620.41
2023-04-09T01:46:21.485Z,100614.59
2023-04-09T01:48:49.582Z,100611.06
2023-04-09T01:51:17.703Z,100613.66
2023-04-09T01:53:44.559Z,100614.59
2023-04-09T01:56:11.440Z,100614.47
2023-04-09T01:58:38.328Z,100617.66
2023-04-09T02:01:14.406Z,100610.41
2023-04-09T02:03:58.621Z,100608.41
2023-04-09T02:06:51.054Z,100617.97
2023-04-09T02:09:19.922Z,100622.69
2023-04-09T02:11:49.090Z,100615.38
2023-04-09T02:14:18.694Z,100612.16
2023-04-09T02:16:48.176Z,100615.97
2023-04-09T02:19:14.917Z,100614.31
2023-04-09T02:21:54.523Z,100613.97
2023-04-09T02:24:25.342Z,100618.88
2023-04-09T02:26:52.377Z,100611.28
2023-04-09T02:29:19.068Z,100615.16
2023-04-09T02:31:45.872Z,100618.94
2023-04-09T02:34:12.662Z,100618.00
2023-04-09T02:36:41.284Z,100614.19
2023-04-09T02:39:08.224Z,100613.88
2023-04-09T02:41:34.956Z,100617.09
2023-04-09T02:44:01.768Z,100615.22
2023-04-09T02:46:28.785Z,100615.22
2023-04-09T02:48:55.641Z,100620.38
2023-04-09T02:51:22.424Z,100613.47
2023-04-09T02:53:49.356Z,100616.25
2023-04-09T02:56:16.216Z,100624.63
2023-04-09T02:58:43.138Z,100618.84
2023-04-09T03:01:10.045Z,100610.31
2023-04-09T03:03:39.150Z,100618.03
2023-04-09T03:06:06.057Z,100614.50
2023-04-09T03:08:32.917Z,100615.97
2023-04-09T03:11:00.479Z,100608.91
2023-04-09T03:13:28.612Z,100613.78
2023-04-09T03:15:55.784Z,100613.84
2023-04-09T03:18:22.601Z,100609.81
2023-04-09T03:20:49.394Z,100608.88
2023-04-09T03:23:16.572Z,100615.47
2023-04-09T03:25:46.502Z,100612.81
2023-04-09T03:28:17.388Z,100612.44
2023-04-09T03:30:48.071Z,100604.72
2023-04-09T03:33:15.438Z,100604.44
2023-04-09T03:36:00.095Z,100606.91
2023-04-09T03:38:47.317Z,100608.84
2023-04-09T03:41:27.281Z,100605.97
2023-04-09T03:43:56.103Z,100609.44
2023-04-09T03:46:26.373Z,100615.91
2023-04-09T03:48:53.862Z,100614.03
2023-04-09T03:51:22.681Z,100620.31
2023-04-09T03:53:55.225Z,100619.09
2023-04-09T03:56:22.491Z,100619.81
2023-04-09T03:58:49.850Z,100620.19
2023-04-09T04:01:17.720Z,100617.84
2023-04-09T04:03:54.186Z,100624.38
2023-04-09T04:06:27.362Z,100632.69
2023-04-09T04:09:17.258Z,100629.44
2023-04-09T04:11:50.176Z,100641.22
2023-04-09T04:14:20.934Z,100630.25
2023-04-09T04:16:53.850Z,100634.25
2023-04-09T04:19:25.625Z,100632.31
2023-04-09T04:21:52.473Z,100634.97
2023-04-09T04:24:23.647Z,100635.78
2023-04-09T04:26:52.337Z,100638.13
2023-04-09T04:29:21.254Z,100636.72
2023-04-09T04:31:54.890Z,100642.91
2023-04-09T04:34:24.286Z,100645.19
2023-04-09T04:36:59.490Z,100636.84
2023-04-09T04:39:31.683Z,100637.91
2023-04-09T04:42:08.742Z,100634.53
2023-04-09T04:44:35.843Z,100638.31
2023-04-09T04:47:15.588Z,100634.78
2023-04-09T04:49:42.514Z,100639.34
2023-04-09T04:52:10.274Z,100639.03
2023-04-09T04:54:40.492Z,100635.19
2023-04-09T04:57:07.686Z,100633.78
2023-04-09T04:59:40.011Z,100646.69
2023-04-09T05:02:09.369Z,100640.13
2023-04-09T05:04:59.374Z,100647.91
2023-04-09T05:07:34.712Z,100638.59
2023-04-09T05:10:01.910Z,100640.94
2023-04-09T05:12:35.015Z,100644.97
2023-04-09T05:15:02.351Z,100641.25
2023-04-09T05:17:31.628Z,100636.28
2023-04-09T05:19:59.220Z,100635.81
2023-04-09T05:22:34.853Z,100643.22
2023-04-09T05:25:01.786Z,100648.09
2023-04-09T05:27:30.372Z,100648.75
2023-04-09T05:30:01.358Z,100648.09
2023-04-09T05:32:28.497Z,100654.88
2023-04-09T05:34:56.476Z,100652.19
2023-04-09T05:37:24.642Z,100654.59
2023-04-09T05:39:52.991Z,100655.41
2023-04-09T05:42:20.838Z,100656.69
2023-04-09T05:44:55.817Z,100660.59
2023-04-09T05:47:23.953Z,100661.88
2023-04-09T05:50:16.957Z,100668.16
2023-04-09T05:52:43.910Z,100667.53
2023-04-09T05:55:13.486Z,100667.41
2023-04-09T05:57:48.419Z,100667.09
2023-04-09T06:00:15.793Z,100670.47
2023-04-09T06:02:47.479Z,100676.28
2023-04-09T06:05:14.403Z,100676.31
2023-04-09T06:07:41.290Z,100681.66
2023-04-09T06:10:08.830Z,100684.75
2023-04-09T06:12:36.381Z,100684.06
2023-04-09T06:15:05.493Z,100686.31
2023-04-09T06:17:35.963Z,100679.81
2023-04-09T06:20:02.920Z,100679.81
2023-04-09T06:22:30.083Z,100679.47
2023-04-09T06:24:56.916Z,100685.28
2023-04-09T06:27:24.414Z,100696.25
2023-04-09T06:29:51.211Z,100693.94
2023-04-09T06:32:18.020Z,100692.13
2023-04-09T06:34:44.905Z,100691.69
2023-04-09T06:37:11.725Z,100692.94
2023-04-09T06:39:40.362Z,100696.44
2023-04-09T06:42:09.314Z,100694.59
2023-04-09T06:45:02.718Z,100702.84
2023-04-09T06:47:30.473Z,100705.88
2023-04-09T06:49:57.199Z,100702.13
2023-04-09T06:52:23.979Z,100702.06
2023-04-09T06:54:50.741Z,100703.31
2023-04-09T06:57:18.130Z,100706.75
2023-04-09T06:59:44.840Z,100710.88
2023-04-09T07:02:12.038Z,100720.16
2023-04-09T07:04:38.903Z,100715.09
2023-04-09T07:07:06.133Z,100717.81
2023-04-09T07:09:32.927Z,100720.84
2023-04-09T07:11:59.665Z,100722.72
2023-04-09T07:14:26.486Z,100716.75
2023-04-09T07:16:53.292Z,100722.13
2023-04-09T07:19:20.066Z,100720.25
2023-04-09T07:21:46.801Z,100724.56
2023-04-09T07:24:13.551Z,100724.81
2023-04-09T07:26:40.334Z,100733.16
2023-04-09T07:29:07.983Z,100723.28
2023-04-09T07:31:36.022Z,100730.72
2023-04-09T07:34:02.947Z,100727.25
2023-04-09T07:36:29.698Z,100729.56
2023-04-09T07:38:56.585Z,100733.75
2023-04-09T07:41:23.424Z,100735.75
2023-04-09T07:43:50.179Z,100733.75
2023-04-09T07:46:21.842Z,100736.94
2023-04-09T07:48:50.550Z,100735.44
2023-04-09T07:51:17.701Z,100738.44
2023-04-09T07:53:44.453Z,100739.78
2023-04-09T07:56:11.302Z,100738.34
2023-04-09T07:58:38.204Z,100741.25
2023-04-09T08:01:05.389Z,100741.84
2023-04-09T08:03:36.524Z,100744.41
2023-04-09T08:06:03.805Z,100749.44
2023-04-09T08:08:31.048Z,100752.03
2023-04-09T08:10:57.864Z,100745.31
2023-04-09T08:13:27.906Z,100758.50
2023-04-09T08:15:54.687Z,100756.03
2023-04-09T08:18:21.495Z,100760.09
2023-04-09T08:20:48.603Z,100753.63
2023-04-09T08:23:15.532Z,100759.19
2023-04-09T08:25:42.263Z,100755.88
2023-04-09T08:28:09.095Z,100760.09
2023-04-09T08:30:36.424Z,100756.66
2023-04-09T08:33:04.183Z,100758.78
2023-04-09T08:35:31.729Z,100763.44
2023-04-09T08:37:59.192Z,100768.69
2023-04-09T08:40:26.050Z,100763.25
2023-04-09T08:42:57.126Z,100767.78
2023-04-09T08:45:24.258Z,100771.63
2023-04-09T08:47:52.433Z,100767.72
2023-04-09T08:50:21.938Z,100769.41
2023-04-09T08:52:50.411Z,100768.59
2023-04-09T08:55:17.241Z,100776.13
2023-04-09T08:57:44.575Z,100778.38
2023-04-09T09:00:14.545Z,100775.06
2023-04-09T09:03:07.533Z,100782.88
2023-04-09T09:06:22.579Z,100777.72
2023-04-09T09:09:11.130Z,100785.44
2023-04-09T09:14:23.827Z,100785.47
2023-04-09T09:16:56.913Z,100786.22
2023-04-09T09:19:30.933Z,100778.88
2023-04-09T09:21:59.212Z,100783.25
2023-04-09T09:24:26.306Z,100784.81
2023-04-09T09:26:54.535Z,100781.41
2023-04-09T09:29:21.931Z,100784.66
2023-04-09T09:31:52.036Z,100777.78
2023-04-09T09:34:22.849Z,100775.84
2023-04-09T09:36:52.393Z,100784.53
2023-04-09T09:39:25.972Z,100778.41
2023-04-09T09:42:08.446Z,100785.19
2023-04-09T09:44:35.353Z,100786.50
2023-04-09T09:47:04.842Z,100792.88
2023-04-09T09:49:31.694Z,100789.25
2023-04-09T09:52:02.930Z,100787.56
2023-04-09T09:54:36.611Z,100791.94
2023-04-09T09:57:07.624Z,100784.78
2023-04-09T09:59:40.700Z,100779.31
2023-04-09T10:02:18.143Z,100782.31
2023-04-09T10:04:45.756Z,100783.19
2023-04-09T10:07:18.273Z,100788.16
2023-04-09T10:09:51.335Z,100782.53
2023-04-09T10:12:22.534Z,100783.72
2023-04-09T10:14:51.009Z,100787.28
2023-04-09T10:17:18.516Z,100779.25
2023-04-09T10:20:23.276Z,100778.50
2023-04-09T10:22:52.880Z,100784.25
2023-04-09T10:25:23.727Z,100773.75
2023-04-09T10:28:16.542Z,100778.03
2023-04-09T10:30:43.872Z,100775.16
2023-04-09T10:33:16.742Z,100772.81
2023-04-09T10:35:51.542Z,100765.13
2023-04-09T10:38:33.157Z,100771.97
2023-04-09T10:41:23.342Z,100769.09
2023-04-09T10:43:50.184Z,100766.53
2023-04-09T10:46:37.454Z,100770.06
2023-04-09T10:49:18.945Z,100762.59
2023-04-09T10:52:11.747Z,100765.88
2023-04-09T10:54:44.020Z,100759.94
2023-04-09T10:57:14.760Z,100764.56
2023-04-09T11:00:25.823Z,100763.38
2023-04-09T11:03:27.238Z,100766.75
2023-04-09T11:06:06.128Z,100766.44
2023-04-09T11:08:34.079Z,100761.53
2023-04-09T11:11:02.093Z,100758.38
2023-04-09T11:13:32.386Z,100761.69
2023-04-09T11:16:01.281Z,100760.41
2023-04-09T11:18:30.397Z,100765.53
2023-04-09T11:21:49.869Z,100757.00
2023-04-09T11:24:24.296Z,100763.09
2023-04-09T11:26:51.450Z,100761.56
2023-04-09T11:29:18.251Z,100763.56
2023-04-09T11:31:46.336Z,100776.34
2023-04-09T11:34:13.158Z,100760.81
2023-04-09T11:36:40.754Z,100770.84
2023-04-09T11:39:07.504Z,100774.69
2023-04-09T11:41:36.010Z,100770.81
2023-04-09T11:44:04.343Z,100766.41
2023-04-09T11:46:35.765Z,100771.25
2023-04-09T11:49:03.382Z,100767.19
2023-04-09T11:51:35.484Z,100774.16
2023-04-09T11:54:03.640Z,100771.16
2023-04-09T11:56:35.784Z,100768.44
2023-04-09T11:59:03.465Z,100773.69
2023-04-09T12:01:34.564Z,100773.63
2023-04-09T12:04:02.103Z,100771.47
2023-04-09T12:06:29.815Z,100770.78
2023-04-09T12:09:00.251Z,100768.84
2023-04-09T12:11:31.790Z,100765.72
2023-04-09T12:14:18.229Z,100770.84
2023-04-09T12:16:45.708Z,100781.84
2023-04-09T12:19:13.797Z,100773.81
2023-04-09T12:21:55.576Z,100774.47
2023-04-09T12:24:24.718Z,100768.16
2023-04-09T12:26:53.006Z,100774.16
2023-04-09T12:29:21.304Z,100771.94
2023-04-09T12:31:48.247Z,100765.16
2023-04-09T12:34:15.291Z,100774.47
2023-04-09T12:36:42.135Z,100771.31
2023-04-09T12:39:11.918Z,100763.66
2023-04-09T12:41:38.641Z,100769.84
2023-04-09T12:44:07.363Z,100771.28
2023-04-09T12:46:34.269Z,100759.34
2023-04-09T12:49:01.073Z,100763.97
2023-04-09T12:51:28.683Z,100760.19
2023-04-09T12:53:56.478Z,100760.81
2023-04-09T12:56:23.718Z,100756.59
2023-04-09T12:58:52.591Z,100758.22
2023-04-09T13:01:19.561Z,100758.50
2023-04-09T13:03:46.774Z,100751.97
2023-04-09T13:06:13.673Z,100753.88
2023-04-09T13:08:41.244Z,100754.06
2023-04-09T13:11:08.038Z,100751.16
2023-04-09T13:13:34.966Z,100758.34
2023-04-09T13:16:02.242Z,100747.31
2023-04-09T13:18:30.158Z,100737.56
2023-04-09T13:20:57.059Z,100741.59
2023-04-09T13:23:23.883Z,100741.72
2023-04-09T13:25:50.833Z,100734.78
2023-04-09T13:28:17.919Z,100739.75
2023-04-09T13:30:44.765Z,100736.97
2023-04-09T13:33:11.621Z,100740.19
2023-04-09T13:35:38.445Z,100739.91
2023-04-09T13:38:05.300Z,100743.59
2023-04-09T13:40:32.417Z,100740.50
2023-04-09T13:42:59.316Z,100745.00
2023-04-09T13:45:33.515Z,100738.06
2023-04-09T13:48:00.347Z,100746.47
2023-04-09T13:50:27.161Z,100734.09
2023-04-09T13:52:56.813Z,100724.19
2023-04-09T13:55:26.805Z,100724.00
2023-04-09T13:57:53.600Z,100732.59
2023-04-09T14:00:20.904Z,100727.28
2023-04-09T14:02:47.928Z,100720.53
2023-04-09T14:05:14.868Z,100722.44
2023-04-09T14:07:41.740Z,100724.22
2023-04-09T14:10:08.958Z,100732.38
2023-04-09T14:12:40.707Z,100734.81
2023-04-09T14:15:08.204Z,100731.72
2023-04-09T14:17:36.766Z,100726.78
2023-04-09T14:20:04.145Z,100721.84
2023-04-09T14:22:31.312Z,100724.78
2023-04-09T14:24:59.419Z,100724.31
2023-04-09T14:27:26.538Z,100716.16
2023-04-09T14:29:53.747Z,100721.09
2023-04-09T14:32:20.547Z,100723.34
2023-04-09T14:34:47.431Z,100717.69
2023-04-09T14:37:14.335Z,100711.91
2023-04-09T14:39:41.058Z,100720.06
2023-04-09T14:42:09.076Z,100710.84
2023-04-09T14:44:39.090Z,100708.69
2023-04-09T14:47:05.957Z,100712.97
2023-04-09T14:49:57.983Z,100707.69
2023-04-09T14:52:27.319Z,100706.09
2023-04-09T14:54:55.404Z,100704.75
2023-04-09T14:57:22.116Z,100705.38
2023-04-09T14:59:48.877Z,100699.19
2023-04-09T15:02:16.554Z,100703.94
2023-04-09T15:04:43.548Z,100697.56
2023-04-09T15:07:10.707Z,100707.50
2023-04-09T15:09:37.561Z,100703.84
2023-04-09T15:12:04.500Z,100697.84
2023-04-09T15:14:31.781Z,100707.13
2023-04-09T15:16:58.612Z,100706.69
2023-04-09T15:19:25.383Z,100705.06
2023-04-09T15:21:52.208Z,100703.50
2023-04-09T15:24:18.939Z,100695.69
2023-04-09T15:26:45.667Z,100697.44
2023-04-09T15:29:12.340Z,100697.13
2023-04-09T15:31:41.352Z,100697.56
2023-04-09T15:34:08.463Z,100695.22
2023-04-09T15:36:35.302Z,100701.63
2023-04-09T15:39:04.433Z,100699.91
2023-04-09T15:41:32.373Z,100698.56
2023-04-09T15:43:59.629Z,100697.94
2023-04-09T15:46:26.326Z,100698.19
2023-04-09T15:48:53.197Z,100699.84
2023-04-09T15:51:20.616Z,100699.03
2023-04-09T15:53:47.402Z,100699.66
2023-04-09T15:56:17.102Z,100699.84
2023-04-09T15:58:44.295Z,100711.16
2023-04-09T16:01:11.341Z,100697.88
2023-04-09T16:03:41.111Z,100704.22
2023-04-09T16:06:15.144Z,100700.47
2023-04-09T16:08:42.259Z,100702.84
2023-04-09T16:11:09.597Z,100697.34
2023-04-09T16:13:37.261Z,100705.56
2023-04-09T16:16:04.685Z,100705.47
2023-04-09T16:18:31.422Z,100707.34
2023-04-09T16:20:58.583Z,100705.72
2023-04-09T16:23:29.073Z,100700.53
2023-04-09T16:25:57.281Z,100696.59
2023-04-09T16:28:24.071Z,100706.91
2023-04-09T16:30:51.469Z,100703.34
2023-04-09T16:33:18.465Z,100693.75
2023-04-09T16:35:45.391Z,100702.16
2023-04-09T16:38:13.532Z,100707.25
2023-04-09T16:40:40.834Z,100697.69
2023-04-09T16:43:07.547Z,100704.38
2023-04-09T16:45:34.840Z,100689.00
2023-04-09T16:48:01.727Z,100705.13
2023-04-09T16:50:28.627Z,100707.84
2023-04-09T16:52:55.455Z,100714.56
2023-04-09T16:55:22.313Z,100702.75
2023-04-09T16:57:49.149Z,100705.66
2023-04-09T17:00:17.784Z,100700.75
2023-04-09T17:02:46.031Z,100708.19
2023-04-09T17:05:14.847Z,100705.59
2023-04-09T17:07:41.622Z,100702.44
2023-04-09T17:10:08.923Z,100707.66
2023-04-09T17:12:35.900Z,100704.16
2023-04-09T17:15:03.823Z,100703.44
2023-04-09T17:17:30.970Z,100705.25
2023-04-09T17:19:58.518Z,100700.75
2023-04-09T17:22:25.406Z,100708.25
2023-04-09T17:24:52.841Z,100714.91
2023-04-09T17:27:19.852Z,100711.41
2023-04-09T17:29:46.844Z,100715.47
2023-04-09T17:32:21.672Z,100713.38
2023-04-09T17:35:21.051Z,100714.41
2023-04-09T17:38:25.094Z,100711.97
2023-04-09T17:40:53.993Z,100715.53
2023-04-09T17:43:20.693Z,100723.78
2023-04-09T17:45:47.592Z,100717.63
2023-04-09T17:48:20.567Z,100717.28
2023-04-09T17:50:47.568Z,100725.53
2023-04-09T17:53:14.313Z,100724.56
2023-04-09T17:55:49.140Z,100728.63
2023-04-09T17:58:23.682Z,100730.41
2023-04-09T18:00:53.235Z,100737.63
2023-04-09T18:03:22.947Z,100732.31
2023-04-09T18:05:50.331Z,100742.69
2023-04-09T18:08:17.777Z,100747.53
2023-04-09T18:11:10.979Z,100746.19
2023-04-09T18:13:43.453Z,100748.59
2023-04-09T18:16:13.392Z,100748.94
2023-04-09T18:18:40.402Z,100738.41
2023-04-09T18:21:08.092Z,100742.31
2023-04-09T18:23:36.030Z,100748.75
2023-04-09T18:26:04.307Z,100745.63
2023-04-09T18:28:31.728Z,100750.00
2023-04-09T18:30:58.952Z,100759.06
2023-04-09T18:33:28.362Z,100750.47
2023-04-09T18:35:55.176Z,100758.09
2023-04-09T18:38:22.781Z,100757.09
2023-04-09T18:40:52.727Z,100764.72
2023-04-09T18:43:19.681Z,100764.25
2023-04-09T18:45:47.264Z,100769.25
2023-04-09T18:48:14.005Z,100764.06
2023-04-09T18:50:42.792Z,100763.28
2023-04-09T18:53:11.911Z,100756.47
2023-04-09T18:55:38.908Z,100761.03
2023-04-09T18:58:13.581Z,100767.19
2023-04-09T19:00:40.542Z,100771.53
2023-04-09T19:03:08.224Z,100774.13
2023-04-09T19:05:35.529Z,100768.00
2023-04-09T19:08:06.936Z,100769.78
2023-04-09T19:10:33.936Z,100774.00
2023-04-09T19:13:01.858Z,100779.19
2023-04-09T19:15:29.527Z,100784.00
2023-04-09T19:17:57.487Z,100785.97
2023-04-09T19:20:24.377Z,100781.78
2023-04-09T19:22:57.321Z,100783.69
2023-04-09T19:25:24.255Z,100781.44
2023-04-09T19:27:53.658Z,100786.63
2023-04-09T19:30:21.457Z,100784.19
2023-04-09T19:32:49.476Z,100793.75
2023-04-09T19:35:19.081Z,100793.13
2023-04-09T19:37:46.880Z,100786.19
2023-04-09T19:40:16.974Z,100786.53
2023-04-09T19:42:44.367Z,100785.09
2023-04-09T19:45:13.835Z,100785.75
2023-04-09T19:47:41.498Z,100790.78
2023-04-09T19:50:08.687Z,100796.94
2023-04-09T19:52:35.466Z,100791.97
2023-04-09T19:55:05.141Z,100789.41
2023-04-09T19:57:32.039Z,100785.22
2023-04-09T19:59:58.861Z,100790.72
2023-04-09T20:02:28.510Z,100797.00
2023-04-09T20:04:55.826Z,100797.50
2023-04-09T20:07:25.428Z,100790.38
2023-04-09T20:09:57.820Z,100791.38
2023-04-09T20:12:29.371Z,100791.38
2023-04-09T20:15:10.161Z,100791.53
2023-04-09T20:17:37.295Z,100783.25
2023-04-09T20:20:05.205Z,100793.25
2023-04-09T20:22:38.758Z,100792.97
2023-04-09T20:25:06.982Z,100785.22
2023-04-09T20:27:41.100Z,100792.00
2023-04-09T20:30:08.692Z,100790.38
2023-04-09T20:32:37.795Z,100786.97
2023-04-09T20:35:08.346Z,100787.28
2023-04-09T20:37:37.413Z,100791.38
2023-04-09T20:40:07.649Z,100793.16
2023-04-09T20:42:34.569Z,100786.81
2023-04-09T20:45:02.020Z,100790.72
2023-04-09T20:47:30.448Z,100793.78
2023-04-09T20:50:03.054Z,100790.41
2023-04-09T20:52:33.525Z,100784.56
2023-04-09T20:55:00.922Z,100786.50
2023-04-09T20:57:30.083Z,100787.16
2023-04-09T20:59:57.578Z,100784.56
2023-04-09T21:02:27.945Z,100791.19
2023-04-09T21:05:08.395Z,100785.53
2023-04-09T21:07:42.031Z,100792.28
2023-04-09T21:10:11.563Z,100784.88
2023-04-09T21:12:40.802Z,100784.19
2023-04-09T21:15:08.153Z,100780.97
2023-04-09T21:17:35.101Z,100781.94
2023-04-09T21:20:02.019Z,100788.06
2023-04-09T21:22:34.353Z,100782.28
2023-04-09T21:25:03.318Z,100777.09
2023-04-09T21:27:31.557Z,100789.38
2023-04-09T21:30:01.416Z,100775.50
2023-04-09T21:32:31.421Z,100781.47
2023-04-09T21:34:58.293Z,100783.09
2023-04-09T21:37:25.334Z,100793.22
2023-04-09T21:39:54.484Z,100786.44
2023-04-09T21:42:24.116Z,100780.66
2023-04-09T21:44:50.818Z,100785.47
2023-04-09T21:47:28.453Z,100784.50
2023-04-09T21:49:58.260Z,100787.59
2023-04-09T21:52:26.624Z,100795.22
2023-04-09T21:54:53.608Z,100795.06
2023-04-09T21:57:23.198Z,100795.69
2023-04-09T22:00:01.565Z,100795.06
2023-04-09T22:02:50.101Z,100795.88
2023-04-09T22:05:19.567Z,100800.38
2023-04-09T22:07:46.411Z,100796.84
2023-04-09T22:10:13.216Z,100796.84
2023-04-09T22:12:40.242Z,100797.81
2023-04-09T22:15:07.350Z,100791.81
2023-04-09T22:17:34.229Z,100795.50
2023-04-09T22:20:01.152Z,100796.78
2023-04-09T22:22:28.327Z,100795.50
2023-04-09T22:24:55.091Z,100794.84
2023-04-09T22:27:21.889Z,100792.75
2023-04-09T22:29:48.657Z,100789.94
2023-04-09T22:32:15.937Z,100796.75
2023-04-09T22:34:42.743Z,100793.78
2023-04-09T22:37:09.560Z,100797.94
2023-04-09T22:39:36.550Z,100803.59
2023-04-09T22:42:03.802Z,100796.19
2023-04-09T22:44:30.619Z,100804.34
2023-04-09T22:46:57.448Z,100803.06
2023-04-09T22:49:24.688Z,100795.91
2023-04-09T22:51:51.434Z,100800.41
2023-04-09T22:54:20.456Z,100800.75
2023-04-09T22:56:47.274Z,100802.69
2023-04-09T22:59:14.078Z,100798.09
2023-04-09T23:01:41.712Z,100801.03
2023-04-09T23:04:08.929Z,100801.59
2023-04-09T23:06:36.053Z,100794.34
2023-04-09T23:09:02.882Z,100791.38
2023-04-09T23:11:30.585Z,100785.72
2023-04-09T23:13:57.329Z,100782.47
2023-04-09T23:16:24.098Z,100791.34
2023-04-09T23:18:51.233Z,100783.75
2023-04-09T23:21:18.069Z,100778.88
2023-04-09T23:23:47.974Z,100784.50
2023-04-09T23:26:14.673Z,100782.09
2023-04-09T23:28:41.562Z,100779.78
2023-04-09T23:31:08.510Z,100778.47
2023-04-09T23:33:35.435Z,100776.19
2023-04-09T23:36:02.235Z,100775.53
2023-04-09T23:38:28.947Z,100775.84
2023-04-09T23:40:55.650Z,100768.25
2023-04-09T23:43:22.437Z,100772.88
2023-04-09T23:45:50.675Z,100770.44
2023-04-09T23:48:17.505Z,100768.69
2023-04-09T23:50:44.285Z,100772.53
2023-04-09T23:53:11.068Z,100771.06
2023-04-09T23:55:38.547Z,100773.78
2023-04-09T23:58:05.852Z,100768.63
